Flight Track Log - Related Links

Times and Time Zones

All times are in EDT time to prevent confusion due to time zone crossing. See the N143DE flight status page for this flight to view local times or setup timezone preferences in your user account.

Time Position Orientation Groundspeed Altitude Reporting Facility
EDT Latitude Longitude Course Direction KTS MPH feet Rate Location/Type
Mon 09:18:00 PM 30.6767 -88.1733 45° Northeast 168 193 3,900  Level Houston Center
Mon 09:19:02 PM 30.7086 -88.1275 51° Northeast 183 211 5,400 1,415 Climbing Houston Center
Mon 09:20:03 PM 30.7486 -88.0836 43° Northeast 197 227 6,800 1,561 Climbing Houston Center
Mon 09:21:05 PM 30.8000 -88.0319 41° Northeast 205 236 8,600 1,610 Climbing Houston Center
Mon 09:22:00 PM 30.9912 -87.8894 45° Northeast  Level Estimated
Mon 09:22:06 PM 30.8436 -87.9881 41° Northeast 208 239 10,100  Level Houston Center
Mon 09:23:00 PM 31.0411 -87.8302 45° Northeast  Level Estimated
Mon 09:23:08 PM 30.8864 -87.9425 42° Northeast 208 239 11,600  Level Houston Center
Mon 09:24:09 PM 30.9297 -87.8992 41° Northeast 207 238 13,000 1,180 Climbing Houston Center
Mon 09:25:10 PM 30.9750 -87.8517 42° Northeast 219 252 14,000 1,122 Climbing Houston Center
Mon 09:26:12 PM 31.0219 -87.8019 42° Northeast 228 262 15,300 1,268 Climbing Houston Center
Mon 09:27:13 PM 31.0678 -87.7511 44° Northeast 229 264 16,600 1,279 Climbing Houston Center
Mon 09:28:14 PM 31.1214 -87.6983 40° Northeast 212 244 17,900 1,180 Climbing Houston Center
Mon 09:29:15 PM 31.1675 -87.6519 41° Northeast 219 252 19,000 1,024 Climbing Houston Center
Mon 09:30:17 PM 31.2158 -87.6014 42° Northeast 231 266 20,000 927 Climbing Houston Center
Mon 09:31:18 PM 31.2650 -87.5492 42° Northeast 239 275 20,900 934 Climbing Houston Center
Mon 09:32:19 PM 31.3164 -87.4964 41° Northeast 246 283 21,900 934 Climbing Houston Center
Mon 09:33:20 PM 31.3683 -87.4436 41° Northeast 248 285 22,800 878 Climbing Houston Center
Mon 09:34:22 PM 31.4192 -87.3903 42° Northeast 246 283 23,700 780 Climbing Houston Center
Mon 09:35:23 PM 31.4731 -87.3381 40° Northeast 250 288 24,400 689 Climbing Houston Center
Mon 09:36:24 PM 31.5164 -87.2714 53° Northeast 258 297 25,100 344 Climbing Houston Center
Mon 09:37:25 PM 31.5686 -87.2050 47° Northeast 274 315 25,100  Level Houston Center
Mon 09:38:26 PM 31.6367 -87.1161 48° Northeast 302 348 25,100 -58 Level Houston Center
Mon 09:39:09 PM 31.6761 -87.0719 44° Northeast 292 336 25,000 -58 Descending Atlanta Center
Mon 09:40:09 PM 31.7408 -86.9864 48° Northeast 304 350 25,000  Level Atlanta Center
Mon 09:41:09 PM 31.7969 -86.9075 50° Northeast 309 356 25,000  Level Atlanta Center
Mon 09:42:09 PM 31.8550 -86.8286 49° Northeast 309 356 25,000  Level Atlanta Center
Mon 09:43:09 PM 31.9153 -86.7497 48° Northeast 309 356 25,000  Level Atlanta Center
Mon 09:44:09 PM 31.9708 -86.6806 47° Northeast 309 356 25,000  Level Atlanta Center
Mon 09:45:09 PM 32.0311 -86.6014 48° Northeast 309 356 25,000  Level Atlanta Center
Mon 09:46:09 PM 32.0889 -86.5247 48° Northeast 309 356 25,000  Level Atlanta Center
Mon 09:47:09 PM 32.1511 -86.4453 47° Northeast 309 356 25,000  Level Atlanta Center
Mon 09:48:09 PM 32.2114 -86.3539 52° Northeast 309 356 25,000  Level Atlanta Center
Mon 09:49:09 PM 32.2753 -86.2744 46° Northeast 314 361 25,000  Level Atlanta Center
Mon 09:50:09 PM 32.3247 -86.1969 53° Northeast 322 371 25,000  Level Atlanta Center
Mon 09:51:09 PM 32.3867 -86.1172 47° Northeast 322 371 25,000 -50 Level Atlanta Center
Mon 09:52:09 PM 32.4400 -86.0372 52° Northeast 322 371 24,900 -900 Descending Atlanta Center
Mon 09:53:09 PM 32.5042 -85.9525 48° Northeast 327 376 23,200 -1,550 Descending Atlanta Center
Mon 09:54:09 PM 32.5744 -85.8603 48° Northeast 347 399 21,800 -1,300 Descending Atlanta Center
Mon 09:55:09 PM 32.6339 -85.7753 50° Northeast 347 399 20,600 -1,200 Descending Atlanta Center
Mon 09:56:09 PM 32.6956 -85.6925 48° Northeast 341 392 19,400 -1,200 Descending Atlanta Center
Mon 09:57:09 PM 32.7553 -85.6097 49° Northeast 336 387 18,200 -1,000 Descending Atlanta Center
Mon 09:58:09 PM 32.8167 -85.5269 49° Northeast 330 380 17,400 -700 Descending Atlanta Center
Mon 09:59:09 PM 32.8719 -85.4486 50° Northeast 325 374 16,800 -750 Descending Atlanta Center
Mon 10:00:09 PM 32.9208 -85.3800 50° Northeast 298 343 15,900 -1,050 Descending Atlanta Center
Mon 10:01:09 PM 32.9653 -85.3189 49° Northeast 263 303 14,700 -1,200 Descending Atlanta Center
Mon 10:02:09 PM 33.0097 -85.2575 49° Northeast 243 280 13,500 -1,300 Descending Atlanta Center
Mon 10:03:09 PM 33.0728 -85.2064 34° Northeast 243 280 12,100 -1,250 Descending Atlanta Center
Mon 10:04:09 PM 33.1378 -85.1775 20° North 238 274 11,000 -550 Descending Atlanta Center
Mon 10:05:09 PM 33.2069 -85.1586 13° North 246 283 11,000  Level Atlanta Center
Mon 10:06:09 PM 33.2758 -85.1444 10° North 252 290 11,000  Level Atlanta Center
Mon 10:07:09 PM 33.3408 -85.1231 15° North 259 298 11,000 -200 Level Atlanta Center
Mon 10:08:09 PM 33.4139 -85.0989 15° North 259 298 10,600 -650 Descending Atlanta Center
Mon 10:09:09 PM 33.4914 -85.0775 13° North 265 305 9,700 -850 Descending Atlanta Center
Mon 10:10:09 PM 33.5667 -85.0536 15° North 272 313 8,900 -800 Descending Atlanta Center
Mon 10:11:09 PM 33.6422 -85.0294 15° North 277 319 8,100 -745 Descending Atlanta Center
Mon 10:12:42 PM 33.7667 -85.0000 11° North 264 304 7,000 -431 Descending Atlanta TRACON
Mon 10:13:42 PM 33.8333 -84.9667 23° Northeast 257 296 7,000  Level Atlanta TRACON
Mon 10:14:48 PM 33.8667 -84.8833 64° Northeast 262 302 7,000 -318 Level Atlanta TRACON
Mon 10:15:54 PM 33.8833 -84.8000 76° East 266 306 6,300 -850 Descending Atlanta TRACON
Mon 10:16:48 PM 33.9167 -84.7167 64° Northeast 273 314 5,300 -1,000 Descending Atlanta TRACON
Mon 10:17:48 PM 33.9333 -84.6333 76° East 264 304 4,400 -684 Descending Atlanta TRACON
Mon 10:18:42 PM 33.9667 -84.5667 59° Northeast 233 268 4,000 -200 Descending Atlanta TRACON
Mon 10:19:48 PM 33.9833 -84.4833 76° East 223 257 4,000 -50 Level Atlanta TRACON
Mon 10:20:42 PM 33.9833 -84.4333 90° East 220 253 3,900 -500 Descending Atlanta TRACON
Mon 10:21:48 PM 34.0000 -84.3500 76° East 206 237 3,000 -450 Descending Atlanta TRACON
Mon 10:22:42 PM 34.0167 -84.3000 68° East 186 214 3,000  Level Atlanta TRACON
Mon 10:23:42 PM 34.0000 -84.2500 112° Southeast 195 224 3,000 -250 Level Atlanta TRACON
Mon 10:24:42 PM 33.9500 -84.2667 195° South 169 194 2,500 -500 Descending Atlanta TRACON
Mon 10:25:42 PM 33.9333 -84.2833 220° Southwest 114 131 2,000 -500 Descending Atlanta TRACON
Mon 10:27:00 PM 33.8756 -84.3020 163° South  Level Estimated
Mon 10:34:00 PM 33.8756 -84.3020 163° South  Level Estimated
Mon 10:35:00 PM 33.8756 -84.3020 163° South  Level Estimated

Login

Don't have an account? Register now (free) for customized features, flight alerts, and more!